Time;durP1;ratioP1;P1;durP2;ratioP2;P2;SDS_P1;SDS_P2;PMS_P1;PMS_P2;Temp;Humidity;BMP_temperature;BMP_pressure;BME280_temperature;BME280_humidity;BME280_pressure;Samples;Min_cycle;Max_cycle;Signal;HPM_P1;HPM_P2
2021/06/04 00:01:50;;;;;;;12.90;9.03;;;22.70;81.70;;;;;;5117674;28;20446;-73
2021/06/04 00:04:17;;;;;;;8.97;8.27;;;22.70;81.90;;;;;;5117733;28;20827;-73
2021/06/04 00:06:43;;;;;;;12.10;8.57;;;22.70;81.90;;;;;;5117463;28;20458;-73
2021/06/04 00:09:11;;;;;;;12.00;9.13;;;22.60;82.10;;;;;;5118049;28;20450;-72
2021/06/04 00:11:41;;;;;;;10.37;8.90;;;22.60;82.00;;;;;;5117425;28;20450;-72
2021/06/04 00:14:10;;;;;;;12.93;8.40;;;22.60;82.20;;;;;;5117153;28;20533;-73
2021/06/04 00:16:40;;;;;;;10.47;9.57;;;22.50;82.00;;;;;;5117388;28;20508;-73
2021/06/04 00:19:10;;;;;;;9.90;8.77;;;22.50;82.10;;;;;;5118411;28;20846;-72
2021/06/04 00:21:39;;;;;;;9.87;9.07;;;22.50;82.30;;;;;;5117292;28;20439;-73
2021/06/04 00:24:07;;;;;;;8.93;8.23;;;22.50;82.40;;;;;;5116958;28;20824;-73
2021/06/04 00:26:37;;;;;;;9.37;8.57;;;22.50;82.30;;;;;;5117095;28;20439;-73
2021/06/04 00:29:04;;;;;;;15.87;9.17;;;22.50;82.00;;;;;;5117134;28;20471;-73
2021/06/04 00:31:31;;;;;;;9.60;8.27;;;22.50;82.00;;;;;;5117060;28;20442;-73
2021/06/04 00:33:59;;;;;;;9.63;8.40;;;22.40;82.10;;;;;;5116787;28;20508;-73
2021/06/04 00:36:26;;;;;;;9.23;8.33;;;22.40;82.10;;;;;;5116669;28;20468;-73
2021/06/04 00:38:53;;;;;;;9.73;8.83;;;22.40;82.60;;;;;;5116886;28;20462;-73
2021/06/04 00:41:22;;;;;;;11.90;10.70;;;22.30;83.00;;;;;;5116858;28;20447;-73
2021/06/04 00:43:50;;;;;;;10.83;9.23;;;22.30;83.00;;;;;;5116874;28;20472;-73
2021/06/04 00:46:17;;;;;;;13.23;11.83;;;22.30;83.20;;;;;;5116853;28;20443;-73
2021/06/04 00:48:43;;;;;;;11.23;10.10;;;22.30;83.50;;;;;;5116382;28;20996;-72
2021/06/04 00:51:16;;;;;;;10.80;9.90;;;22.30;83.60;;;;;;5116734;28;20449;-72
2021/06/04 00:53:43;;;;;;;11.10;9.80;;;22.30;83.80;;;;;;5116727;28;20431;-72
2021/06/04 00:56:10;;;;;;;11.63;10.47;;;22.30;83.90;;;;;;5116912;28;20968;-73
2021/06/04 00:58:38;;;;;;;11.90;10.70;;;22.30;83.80;;;;;;5115831;28;20843;-73
2021/06/04 01:01:07;;;;;;;12.90;11.37;;;22.30;83.60;;;;;;5116777;28;20430;-73
2021/06/04 01:03:37;;;;;;;11.73;10.63;;;22.30;83.50;;;;;;5116574;28;20502;-72
2021/06/04 01:06:09;;;;;;;11.63;10.60;;;22.30;83.60;;;;;;5116508;28;20439;-73
2021/06/04 01:08:48;;;;;;;11.87;10.77;;;22.30;83.50;;;;;;5116286;28;20482;-72
2021/06/04 01:11:21;;;;;;;13.03;11.67;;;22.30;83.60;;;;;;5116357;28;20826;-73
2021/06/04 01:14:13;;;;;;;12.00;10.80;;;22.30;83.50;;;;;;5116301;28;20427;-73
2021/06/04 01:16:46;;;;;;;12.37;11.10;;;22.30;83.70;;;;;;5116236;28;20431;-73
2021/06/04 01:19:47;;;;;;;12.83;10.73;;;22.20;84.30;;;;;;5116124;28;20472;-72
2021/06/04 01:22:24;;;;;;;12.00;10.90;;;22.20;83.90;;;;;;5116078;28;20446;-72
2021/06/04 01:25:24;;;;;;;11.40;10.30;;;22.20;84.10;;;;;;5116099;28;20500;-72
2021/06/04 01:27:55;;;;;;;10.97;9.97;;;22.20;84.30;;;;;;5112560;27;20516;-72
2021/06/04 01:30:27;;;;;;;11.90;10.80;;;22.20;83.70;;;;;;5116004;28;20432;-73
2021/06/04 01:32:57;;;;;;;13.03;11.83;;;22.20;84.10;;;;;;5116524;28;20439;-73
2021/06/04 01:35:27;;;;;;;11.53;10.33;;;22.10;84.50;;;;;;5115918;28;20446;-73
2021/06/04 01:37:54;;;;;;;11.13;9.40;;;22.10;84.70;;;;;;5115712;27;20470;-73
2021/06/04 01:40:26;;;;;;;12.30;10.87;;;22.00;84.90;;;;;;5115823;28;20449;-73
2021/06/04 01:42:55;;;;;;;11.67;9.00;;;22.00;84.80;;;;;;5115764;28;20424;-73
2021/06/04 01:45:25;;;;;;;13.43;10.43;;;22.00;85.00;;;;;;5115425;28;20458;-73
2021/06/04 01:47:55;;;;;;;10.53;9.23;;;22.00;84.70;;;;;;5115494;28;20490;-72
2021/06/04 01:50:26;;;;;;;11.27;8.73;;;22.00;85.20;;;;;;5115690;28;20431;-72
2021/06/04 01:52:54;;;;;;;11.70;10.10;;;21.90;85.40;;;;;;5115564;28;20798;-72
2021/06/04 01:55:25;;;;;;;11.90;10.70;;;21.90;85.20;;;;;;5115573;28;20795;-72
2021/06/04 01:57:57;;;;;;;16.20;10.20;;;21.90;85.40;;;;;;5115933;28;20490;-72
2021/06/04 02:00:28;;;;;;;16.63;10.70;;;21.90;85.60;;;;;;5115054;28;20507;-72
2021/06/04 02:02:55;;;;;;;12.90;10.27;;;21.80;86.40;;;;;;5115413;28;20434;-72
2021/06/04 02:05:27;;;;;;;14.20;10.30;;;21.80;85.70;;;;;;5115559;28;20451;-73
2021/06/04 02:07:53;;;;;;;11.87;10.30;;;21.90;85.90;;;;;;5114838;28;20487;-72
2021/06/04 02:10:25;;;;;;;13.50;9.77;;;21.90;85.80;;;;;;5115140;28;20447;-73
2021/06/04 02:12:51;;;;;;;13.00;10.17;;;21.80;85.50;;;;;;5115040;28;21034;-73
2021/06/04 02:15:22;;;;;;;13.97;10.23;;;21.80;85.60;;;;;;5115166;28;20443;-73
2021/06/04 02:17:56;;;;;;;11.70;9.73;;;21.80;85.50;;;;;;5114995;28;20474;-73
2021/06/04 02:20:28;;;;;;;10.43;9.37;;;21.80;85.30;;;;;;5114706;28;20893;-73
2021/06/04 02:23:02;;;;;;;10.97;9.53;;;21.80;85.40;;;;;;5114999;28;20435;-73
2021/06/04 02:25:40;;;;;;;10.60;9.20;;;21.80;85.60;;;;;;5114967;28;20776;-73
2021/06/04 02:28:13;;;;;;;15.63;11.03;;;21.80;86.70;;;;;;5114752;28;20478;-72
2021/06/04 02:30:46;;;;;;;13.53;10.07;;;21.80;86.50;;;;;;5115566;28;20471;-73
2021/06/04 02:33:18;;;;;;;15.60;10.17;;;21.80;86.20;;;;;;5114661;28;20457;-73
2021/06/04 02:35:51;;;;;;;21.93;9.77;;;21.70;86.10;;;;;;5114700;28;20465;-73
2021/06/04 02:38:23;;;;;;;10.43;9.53;;;21.70;85.70;;;;;;5115243;28;20459;-72
2021/06/04 02:40:53;;;;;;;20.07;11.00;;;21.70;85.70;;;;;;5114680;28;20434;-73
2021/06/04 02:43:22;;;;;;;19.27;9.93;;;21.70;85.80;;;;;;5114641;28;20431;-73
2021/06/04 02:45:57;;;;;;;17.50;8.97;;;21.70;85.90;;;;;;5114491;28;20458;-73
2021/06/04 02:48:25;;;;;;;16.10;9.03;;;21.70;86.00;;;;;;5114044;28;20988;-72
2021/06/04 02:50:57;;;;;;;13.27;9.13;;;21.70;85.90;;;;;;5114373;28;20447;-73
2021/06/04 02:53:27;;;;;;;12.07;10.17;;;21.70;85.60;;;;;;5114413;28;20491;-73
2021/06/04 02:56:08;;;;;;;21.10;12.80;;;21.60;85.70;;;;;;5114424;28;20434;-73
2021/06/04 02:58:35;;;;;;;13.63;9.60;;;21.60;86.10;;;;;;5114458;28;20531;-72
2021/06/04 03:01:04;;;;;;;15.47;13.77;;;21.50;86.30;;;;;;5114286;28;20850;-73
2021/06/04 03:03:31;;;;;;;14.80;13.30;;;21.50;86.40;;;;;;5114210;28;20442;-73
2021/06/04 03:05:57;;;;;;;13.80;12.47;;;21.50;86.50;;;;;;5114222;28;20438;-73
2021/06/04 03:08:25;;;;;;;15.30;13.70;;;21.40;86.50;;;;;;5114025;28;20487;-73
2021/06/04 03:10:55;;;;;;;18.10;16.30;;;21.40;86.80;;;;;;5114202;28;20504;-73
2021/06/04 03:13:25;;;;;;;20.30;12.70;;;21.40;87.10;;;;;;5113848;28;20423;-73
2021/06/04 03:15:54;;;;;;;13.87;12.20;;;21.50;87.60;;;;;;5114200;28;20434;-73
2021/06/04 03:18:30;;;;;;;16.07;11.70;;;21.50;87.20;;;;;;5114033;28;20459;-72
2021/06/04 03:20:58;;;;;;;12.57;11.27;;;21.50;86.80;;;;;;5113408;28;20517;-72
2021/06/04 03:23:35;;;;;;;13.90;12.70;;;21.50;86.80;;;;;;5113763;28;20512;-72
2021/06/04 03:26:03;;;;;;;13.67;12.20;;;21.50;86.70;;;;;;5113993;28;20431;-73
2021/06/04 03:28:29;;;;;;;16.07;11.40;;;21.50;86.50;;;;;;5113750;28;20483;-72
2021/06/04 03:30:57;;;;;;;14.43;13.03;;;21.40;86.80;;;;;;5113868;28;20465;-73
2021/06/04 03:33:28;;;;;;;11.60;10.60;;;21.50;86.80;;;;;;5113870;28;20540;-73
2021/06/04 03:35:55;;;;;;;13.17;11.83;;;21.50;87.00;;;;;;5113892;28;20485;-73
2021/06/04 03:38:22;;;;;;;15.70;14.13;;;21.40;86.80;;;;;;5113741;28;20466;-73
2021/06/04 03:40:48;;;;;;;17.37;15.47;;;21.40;86.60;;;;;;5113800;28;20861;-73
2021/06/04 03:43:18;;;;;;;15.30;13.90;;;21.50;87.50;;;;;;5113780;28;20530;-73
2021/06/04 03:45:46;;;;;;;17.83;16.00;;;21.40;87.90;;;;;;5113770;28;20450;-73
2021/06/04 03:48:17;;;;;;;13.00;11.70;;;21.40;87.90;;;;;;5113586;28;20912;-72
2021/06/04 03:50:46;;;;;;;13.80;12.70;;;21.40;87.80;;;;;;5113751;28;20427;-72
2021/06/04 03:53:14;;;;;;;15.10;13.67;;;21.50;87.60;;;;;;5113642;28;20460;-72
2021/06/04 03:55:42;;;;;;;16.50;15.00;;;21.40;87.40;;;;;;5113672;28;20431;-73
2021/06/04 03:58:09;;;;;;;15.30;13.73;;;21.40;87.40;;;;;;5113454;28;20459;-73
2021/06/04 04:00:39;;;;;;;16.33;14.83;;;21.40;87.50;;;;;;5113624;28;20423;-73
2021/06/04 04:03:07;;;;;;;17.70;16.00;;;21.40;87.80;;;;;;5115070;28;20427;-73
2021/06/04 04:05:33;;;;;;;16.17;14.57;;;21.50;88.10;;;;;;5113631;28;20897;-73
2021/06/04 04:08:01;;;;;;;17.47;15.67;;;21.50;88.20;;;;;;5113541;28;20489;-73
2021/06/04 04:10:28;;;;;;;16.10;14.47;;;21.50;87.90;;;;;;5113596;28;20455;-73
2021/06/04 04:12:55;;;;;;;15.93;14.53;;;21.50;88.10;;;;;;5113560;28;20446;-73
2021/06/04 04:15:23;;;;;;;17.60;15.40;;;21.50;88.20;;;;;;5113522;28;20447;-73
2021/06/04 04:17:51;;;;;;;18.23;16.53;;;21.50;88.20;;;;;;5113444;28;20462;-73
2021/06/04 04:20:21;;;;;;;16.53;15.03;;;21.50;88.10;;;;;;5113382;28;20451;-73
2021/06/04 04:22:48;;;;;;;15.20;13.80;;;21.50;87.80;;;;;;5113496;28;20484;-73
2021/06/04 04:25:16;;;;;;;15.93;14.33;;;21.50;88.10;;;;;;5113382;28;20450;-73
2021/06/04 04:27:43;;;;;;;16.20;14.80;;;21.50;87.90;;;;;;5112896;28;20474;-72
2021/06/04 04:30:12;;;;;;;18.70;17.10;;;21.50;87.60;;;;;;5113037;28;20447;-72
2021/06/04 04:32:39;;;;;;;16.37;15.03;;;21.50;87.80;;;;;;5115997;28;20798;-73
2021/06/04 04:35:08;;;;;;;20.67;18.83;;;21.50;87.90;;;;;;5117096;28;20446;-73
2021/06/04 04:37:34;;;;;;;20.33;18.10;;;21.50;87.90;;;;;;5116295;28;20940;-72
2021/06/04 04:40:00;;;;;;;21.97;20.07;;;21.40;87.40;;;;;;5116650;28;20443;-73
2021/06/04 04:42:28;;;;;;;23.03;21.00;;;21.40;87.60;;;;;;5116958;28;20453;-73
2021/06/04 04:44:54;;;;;;;23.10;20.90;;;21.50;87.80;;;;;;5116938;28;20442;-73
2021/06/04 04:47:23;;;;;;;23.83;21.73;;;21.50;87.80;;;;;;5116796;28;20479;-73
2021/06/04 04:49:50;;;;;;;24.03;21.93;;;21.50;87.90;;;;;;5116815;28;20442;-73
2021/06/04 04:52:17;;;;;;;20.50;18.67;;;21.50;87.50;;;;;;5116792;28;20435;-72
2021/06/04 04:54:47;;;;;;;19.83;18.03;;;21.50;87.90;;;;;;5116657;28;20447;-72
2021/06/04 04:57:14;;;;;;;20.60;18.43;;;21.50;87.70;;;;;;5117091;28;20447;-72
2021/06/04 04:59:42;;;;;;;21.70;19.80;;;21.60;87.90;;;;;;5116148;28;20483;-72
2021/06/04 05:02:09;;;;;;;21.20;19.10;;;21.60;88.20;;;;;;5116595;28;20449;-72
2021/06/04 05:04:36;;;;;;;24.13;21.83;;;21.70;88.80;;;;;;5116587;28;20478;-72
2021/06/04 05:07:03;;;;;;;29.13;26.47;;;21.70;88.90;;;;;;5116381;28;20451;-72
2021/06/04 05:09:29;;;;;;;30.60;27.90;;;21.80;89.70;;;;;;5116337;28;20484;-72
2021/06/04 05:11:56;;;;;;;32.13;29.30;;;21.70;90.10;;;;;;5116445;28;20537;-72
2021/06/04 05:14:22;;;;;;;32.07;29.17;;;21.70;90.30;;;;;;5116264;28;20454;-72
2021/06/04 05:16:50;;;;;;;30.43;27.63;;;21.70;90.50;;;;;;5116227;28;20462;-72
2021/06/04 05:19:16;;;;;;;30.63;27.80;;;21.80;90.70;;;;;;5116117;28;20810;-72
2021/06/04 05:21:42;;;;;;;31.13;28.37;;;21.80;90.80;;;;;;5115865;28;20443;-72
2021/06/04 05:24:09;;;;;;;35.63;32.17;;;21.90;91.10;;;;;;5116097;28;20446;-72
2021/06/04 05:26:36;;;;;;;35.43;32.10;;;21.90;91.00;;;;;;5115758;28;20458;-72
2021/06/04 05:29:04;;;;;;;38.83;35.13;;;21.90;91.00;;;;;;5115864;28;20502;-72
2021/06/04 05:31:30;;;;;;;37.77;34.20;;;21.90;91.10;;;;;;5115974;28;20497;-72
2021/06/04 05:33:58;;;;;;;38.00;34.57;;;22.00;91.30;;;;;;5115941;28;20894;-72
2021/06/04 05:36:31;;;;;;;36.03;32.83;;;22.00;91.20;;;;;;5115819;28;20451;-72
2021/06/04 05:39:00;;;;;;;38.83;35.20;;;22.00;91.20;;;;;;5115895;27;20463;-72
2021/06/04 05:41:26;;;;;;;44.37;40.30;;;22.10;91.10;;;;;;5115756;28;20438;-72
2021/06/04 05:43:53;;;;;;;45.70;41.40;;;22.10;91.00;;;;;;5115139;28;20434;-72
2021/06/04 05:46:21;;;;;;;43.07;38.67;;;22.10;91.10;;;;;;5115691;28;20446;-73
2021/06/04 05:48:48;;;;;;;38.57;34.93;;;22.10;91.10;;;;;;5115549;28;20486;-73
2021/06/04 05:51:18;;;;;;;42.27;38.27;;;22.10;91.10;;;;;;5115557;28;20603;-73
2021/06/04 05:53:44;;;;;;;51.60;46.80;;;22.20;90.90;;;;;;5116586;28;20818;-73
2021/06/04 05:56:12;;;;;;;51.60;46.70;;;22.10;90.70;;;;;;5115512;28;20462;-73
2021/06/04 05:58:39;;;;;;;47.90;43.40;;;22.10;90.90;;;;;;5115212;28;20477;-72
2021/06/04 06:01:10;;;;;;;50.37;45.50;;;22.10;90.90;;;;;;5115406;28;20495;-72
2021/06/04 06:03:38;;;;;;;46.60;42.27;;;22.10;90.70;;;;;;5115340;28;20778;-72
2021/06/04 06:06:05;;;;;;;53.40;48.30;;;22.20;90.80;;;;;;5114961;28;20850;-72
2021/06/04 06:08:32;;;;;;;55.43;50.20;;;22.30;90.80;;;;;;5114814;28;20848;-72
2021/06/04 06:10:59;;;;;;;51.63;46.90;;;22.30;90.60;;;;;;5114885;28;20982;-73
2021/06/04 06:13:26;;;;;;;53.20;48.20;;;22.30;90.80;;;;;;5115123;28;20445;-73
2021/06/04 06:15:54;;;;;;;42.70;38.60;;;22.40;90.60;;;;;;5115116;28;20451;-73
2021/06/04 06:18:23;;;;;;;52.00;47.10;;;22.40;90.50;;;;;;5114926;28;20463;-73
2021/06/04 06:20:50;;;;;;;48.27;43.87;;;22.50;90.40;;;;;;5114997;27;20447;-73
2021/06/04 06:23:30;;;;;;;44.37;40.40;;;22.50;90.30;;;;;;5114956;28;20427;-73
2021/06/04 06:26:01;;;;;;;41.73;37.83;;;22.60;90.20;;;;;;5114556;28;20954;-73
2021/06/04 06:28:32;;;;;;;48.00;43.50;;;22.80;90.10;;;;;;5114815;28;20505;-73
2021/06/04 06:30:58;;;;;;;44.50;40.33;;;22.90;89.40;;;;;;5115038;28;20492;-73
2021/06/04 06:33:25;;;;;;;37.20;33.90;;;23.00;89.00;;;;;;5114476;28;20443;-73
2021/06/04 06:35:55;;;;;;;41.70;37.80;;;23.10;87.70;;;;;;5114701;28;20562;-73
2021/06/04 06:38:22;;;;;;;41.60;37.87;;;23.30;87.20;;;;;;5114371;28;20494;-72
2021/06/04 06:40:49;;;;;;;40.50;36.90;;;23.30;87.10;;;;;;5114601;28;20450;-73
2021/06/04 06:43:18;;;;;;;36.50;33.20;;;23.40;86.60;;;;;;5114583;28;20819;-73
2021/06/04 06:45:44;;;;;;;32.00;28.90;;;23.50;85.60;;;;;;5114475;28;20450;-73
2021/06/04 06:48:11;;;;;;;37.63;34.23;;;23.50;84.50;;;;;;5114282;28;20532;-72
2021/06/04 06:50:39;;;;;;;37.60;34.30;;;23.60;84.40;;;;;;5114444;28;20439;-72
2021/06/04 06:53:09;;;;;;;29.17;26.77;;;23.60;84.00;;;;;;5114442;28;20492;-73
2021/06/04 06:55:38;;;;;;;33.87;30.73;;;23.70;83.20;;;;;;5113406;28;20447;-73
2021/06/04 06:58:05;;;;;;;34.93;31.60;;;23.80;82.20;;;;;;5114424;28;20862;-72
2021/06/04 07:00:35;;;;;;;28.00;25.77;;;23.90;82.00;;;;;;5114327;28;20442;-73
2021/06/04 07:03:02;;;;;;;24.60;22.60;;;24.10;81.60;;;;;;5115115;28;20439;-73
2021/06/04 07:05:29;;;;;;;35.10;31.90;;;24.30;80.50;;;;;;5114228;28;20443;-73
2021/06/04 07:07:56;;;;;;;34.63;31.40;;;24.50;80.80;;;;;;5113975;28;20487;-73
2021/06/04 07:10:26;;;;;;;29.73;27.10;;;24.70;81.40;;;;;;5114112;28;20454;-73
2021/06/04 07:12:52;;;;;;;26.77;24.27;;;25.00;80.30;;;;;;5114088;28;20481;-73
2021/06/04 07:15:21;;;;;;;39.00;35.50;;;25.30;78.40;;;;;;5114086;28;20439;-73
2021/06/04 07:17:49;;;;;;;26.93;24.53;;;25.60;77.50;;;;;;5113997;28;20470;-73
2021/06/04 07:20:17;;;;;;;27.97;25.57;;;25.80;76.60;;;;;;5114198;28;20488;-73
2021/06/04 07:22:44;;;;;;;29.70;27.13;;;25.90;75.00;;;;;;5114077;28;20443;-75
2021/06/04 07:25:14;;;;;;;26.10;23.80;;;26.00;74.50;;;;;;5114043;28;20815;-74
2021/06/04 07:27:41;;;;;;;24.57;22.47;;;26.10;73.40;;;;;;5113518;28;20497;-73
2021/06/04 07:30:10;;;;;;;26.43;24.20;;;26.10;72.60;;;;;;5113866;28;20438;-73
2021/06/04 07:32:38;;;;;;;24.87;22.77;;;26.20;72.40;;;;;;5113946;28;20522;-73
2021/06/04 07:35:09;;;;;;;24.07;22.07;;;26.40;72.20;;;;;;5113967;28;20480;-73
2021/06/04 07:37:35;;;;;;;25.80;23.40;;;26.50;71.20;;;;;;5113514;28;20427;-73
2021/06/04 07:40:04;;;;;;;23.20;21.27;;;26.70;70.40;;;;;;5113884;28;20439;-73
2021/06/04 07:42:31;;;;;;;23.83;21.70;;;26.90;69.90;;;;;;5113839;28;20435;-73
2021/06/04 07:44:57;;;;;;;21.13;19.10;;;27.20;69.90;;;;;;5113828;28;20450;-73
2021/06/04 07:47:23;;;;;;;28.73;26.07;;;27.50;69.30;;;;;;5113685;28;20455;-72
2021/06/04 07:49:49;;;;;;;24.77;22.50;;;27.70;67.40;;;;;;5113765;28;20443;-73
2021/06/04 07:52:17;;;;;;;26.77;24.37;;;27.80;66.30;;;;;;5113714;28;20450;-73
2021/06/04 07:54:43;;;;;;;23.10;21.30;;;28.00;65.60;;;;;;5113696;28;20455;-73
2021/06/04 07:57:09;;;;;;;26.40;23.77;;;28.10;64.90;;;;;;5113703;28;20450;-73
2021/06/04 07:59:36;;;;;;;26.33;23.80;;;28.20;64.70;;;;;;5113399;28;20991;-73
2021/06/04 08:02:02;;;;;;;22.73;20.63;;;28.30;64.80;;;;;;5113691;28;20434;-73
2021/06/04 08:04:28;;;;;;;25.60;23.33;;;28.30;64.90;;;;;;5113707;28;20423;-73
2021/06/04 08:06:55;;;;;;;23.93;21.77;;;28.40;64.30;;;;;;5115286;28;20423;-73
2021/06/04 08:09:22;;;;;;;21.47;19.57;;;28.50;64.30;;;;;;5117519;28;20482;-74
2021/06/04 08:11:55;;;;;;;22.17;20.07;;;28.60;63.80;;;;;;5117592;28;20495;-74
2021/06/04 08:14:24;;;;;;;32.20;29.40;;;28.80;63.80;;;;;;5117523;28;20438;-73
2021/06/04 08:16:51;;;;;;;23.53;21.47;;;28.90;62.70;;;;;;5117469;28;20443;-73
2021/06/04 08:19:18;;;;;;;21.63;19.63;;;29.00;61.90;;;;;;5117373;28;20489;-73
2021/06/04 08:21:46;;;;;;;20.30;18.40;;;29.20;62.00;;;;;;5117349;28;20446;-73
2021/06/04 08:24:14;;;;;;;17.40;15.73;;;29.40;61.40;;;;;;5117319;28;20450;-74
2021/06/04 08:26:43;;;;;;;14.87;13.30;;;29.60;60.70;;;;;;5117342;28;20435;-73
2021/06/04 08:29:10;;;;;;;29.40;26.73;;;29.90;59.00;;;;;;5117082;28;20490;-73
2021/06/04 08:31:37;;;;;;;16.70;15.30;;;30.10;58.60;;;;;;5118098;28;20765;-73
2021/06/04 08:34:04;;;;;;;14.57;13.30;;;30.20;58.10;;;;;;5117139;28;20442;-73
2021/06/04 08:36:34;;;;;;;24.20;21.63;;;30.40;57.70;;;;;;5117169;28;20431;-73
2021/06/04 08:39:02;;;;;;;24.70;22.40;;;30.70;57.30;;;;;;5117062;28;20513;-73
2021/06/04 08:41:36;;;;;;;23.17;21.10;;;30.90;56.60;;;;;;5117024;28;20435;-73
2021/06/04 08:44:18;;;;;;;19.73;18.07;;;31.10;55.90;;;;;;5116955;28;20442;-73
2021/06/04 08:46:52;;;;;;;27.47;25.10;;;31.30;55.70;;;;;;5116945;28;20431;-74
2021/06/04 08:49:26;;;;;;;29.73;27.07;;;31.40;54.50;;;;;;5116696;28;20482;-73
2021/06/04 08:52:12;;;;;;;26.13;23.70;;;31.40;53.60;;;;;;5116829;28;20430;-73
2021/06/04 08:54:44;;;;;;;15.23;13.87;;;31.40;53.90;;;;;;5116482;28;20923;-74
2021/06/04 08:57:16;;;;;;;28.00;25.50;;;31.50;53.80;;;;;;5116784;28;20431;-74
2021/06/04 08:59:45;;;;;;;19.07;17.37;;;31.70;54.00;;;;;;5116600;28;20467;-74
2021/06/04 09:02:19;;;;;;;21.00;18.90;;;31.80;53.10;;;;;;5116634;28;20499;-74
2021/06/04 09:04:50;;;;;;;23.47;21.13;;;31.90;53.00;;;;;;5116310;28;20434;-74
2021/06/04 09:07:19;;;;;;;27.23;24.80;;;32.00;52.40;;;;;;5116555;28;20441;-74
2021/06/04 09:09:48;;;;;;;22.47;20.30;;;32.00;52.10;;;;;;5116261;28;20489;-74
2021/06/04 09:12:17;;;;;;;23.27;21.27;;;31.90;51.90;;;;;;5116455;28;20443;-74
2021/06/04 09:14:46;;;;;;;19.83;18.13;;;31.90;52.40;;;;;;5116389;28;20446;-74
2021/06/04 09:17:26;;;;;;;30.83;28.07;;;31.90;52.40;;;;;;5116301;28;20428;-74
2021/06/04 09:20:02;;;;;;;25.97;23.57;;;31.90;52.10;;;;;;5115548;28;20845;-73
2021/06/04 09:22:33;;;;;;;27.70;25.13;;;31.90;51.60;;;;;;5116044;28;20440;-73
2021/06/04 09:24:59;;;;;;;35.33;32.40;;;32.10;51.50;;;;;;5115962;28;20430;-74
2021/06/04 09:27:31;;;;;;;19.93;18.20;;;32.20;50.40;;;;;;5116120;28;20446;-73
2021/06/04 09:30:21;;;;;;;20.60;18.90;;;32.30;49.80;;;;;;5116181;28;20419;-74
2021/06/04 09:33:08;;;;;;;21.60;19.70;;;32.30;50.00;;;;;;5116160;28;20426;-74
2021/06/04 09:35:36;;;;;;;18.70;15.83;;;32.50;50.10;;;;;;5116141;28;20425;-74
2021/06/04 09:38:15;;;;;;;20.53;18.83;;;32.80;49.30;;;;;;5115647;28;20457;-74
2021/06/04 09:40:42;;;;;;;16.77;15.33;;;33.00;48.60;;;;;;5115956;28;20434;-74
2021/06/04 09:43:15;;;;;;;15.20;13.80;;;33.10;48.20;;;;;;5115866;28;20434;-74
2021/06/04 09:45:55;;;;;;;20.80;18.80;;;33.20;48.10;;;;;;5115843;28;20418;-74
2021/06/04 09:48:37;;;;;;;20.43;18.63;;;33.50;47.60;;;;;;5115656;28;20478;-74
2021/06/04 09:51:12;;;;;;;21.10;19.23;;;33.70;47.10;;;;;;5115440;28;20431;-74
2021/06/04 09:53:38;;;;;;;18.53;17.03;;;33.80;45.00;;;;;;5115356;28;20890;-74
2021/06/04 09:56:28;;;;;;;15.90;14.47;;;34.00;45.00;;;;;;5115582;28;20450;-74
2021/06/04 09:58:57;;;;;;;18.73;17.00;;;34.20;45.40;;;;;;5115134;28;20979;-74
2021/06/04 10:01:26;;;;;;;16.73;14.93;;;34.50;44.60;;;;;;5115178;28;20446;-74
2021/06/04 10:03:56;;;;;;;22.47;20.40;;;34.80;44.10;;;;;;5115448;28;20472;-74
2021/06/04 10:06:36;;;;;;;16.87;15.07;;;35.10;43.10;;;;;;5115368;28;20446;-74
2021/06/04 10:09:22;;;;;;;13.70;12.53;;;35.60;41.60;;;;;;5115227;28;20839;-74
2021/06/04 10:11:59;;;;;;;14.87;13.47;;;36.00;41.20;;;;;;5115331;28;20429;-74
2021/06/04 10:14:38;;;;;;;17.60;15.73;;;36.40;40.10;;;;;;5115238;28;20431;-74
2021/06/04 10:17:38;;;;;;;26.00;23.80;;;36.50;38.50;;;;;;5115274;28;20426;-74
2021/06/04 10:20:32;;;;;;;14.80;13.70;;;36.60;37.70;;;;;;5115202;28;20434;-74
2021/06/04 10:23:07;;;;;;;14.30;12.90;;;36.40;38.40;;;;;;5114881;28;20993;-74
2021/06/04 10:25:42;;;;;;;16.23;15.00;;;36.50;39.00;;;;;;5115042;28;20458;-74
2021/06/04 10:28:35;;;;;;;13.60;12.40;;;36.80;38.90;;;;;;5114857;28;20486;-74
2021/06/04 10:31:09;;;;;;;15.10;13.67;;;37.20;38.80;;;;;;5114942;28;20430;-74
2021/06/04 10:33:48;;;;;;;13.50;12.40;;;37.70;38.40;;;;;;5114983;28;20185;-74
2021/06/04 10:36:18;;;;;;;15.30;14.00;;;38.10;35.90;;;;;;5114895;28;20188;-74
2021/06/04 10:38:51;;;;;;;16.15;14.73;;;38.70;35.70;;;;;;5114852;28;20563;-74
2021/06/04 10:41:24;;;;;;;13.07;11.88;;;39.30;34.50;;;;;;5114559;28;20639;-74
2021/06/04 10:44:01;;;;;;;12.80;10.63;;;39.80;32.60;;;;;;5114726;28;20189;-74
2021/06/04 10:46:34;;;;;;;18.25;16.70;;;40.50;31.90;;;;;;5114412;28;20219;-74
2021/06/04 10:49:17;;;;;;;10.93;9.95;;;41.10;31.00;;;;;;5114146;28;20690;-74
2021/06/04 10:51:50;;;;;;;15.82;14.50;;;41.60;29.50;;;;;;5114564;28;20199;-74
2021/06/04 10:54:24;;;;;;;12.35;11.32;;;42.10;28.70;;;;;;5114515;28;20192;-74
2021/06/04 10:56:59;;;;;;;11.30;10.25;;;42.50;28.40;;;;;;5114534;28;20192;-73
2021/06/04 10:59:43;;;;;;;12.40;11.20;;;43.10;27.80;;;;;;5114150;28;20239;-72
2021/06/04 11:02:17;;;;;;;15.65;14.45;;;43.70;27.20;;;;;;5114361;28;20282;-72
2021/06/04 11:04:56;;;;;;;12.90;11.70;;;44.30;25.90;;;;;;5114418;28;20195;-72
2021/06/04 11:07:30;;;;;;;12.43;11.52;;;44.70;25.00;;;;;;5114863;28;20184;-72
2021/06/04 11:10:06;;;;;;;13.80;12.68;;;44.80;24.70;;;;;;5113959;28;20673;-72
2021/06/04 11:12:55;;;;;;;13.75;12.60;;;44.50;25.00;;;;;;5114290;28;20191;-72
2021/06/04 11:15:27;;;;;;;12.93;11.82;;;44.60;25.10;;;;;;5114210;28;20185;-72
2021/06/04 11:17:59;;;;;;;17.92;16.23;;;44.90;24.80;;;;;;5114111;28;20228;-72
2021/06/04 11:20:33;;;;;;;13.82;12.68;;;45.30;24.60;;;;;;5114135;28;20189;-72
2021/06/04 11:23:06;;;;;;;20.33;18.75;;;45.60;23.80;;;;;;5114220;28;20184;-72
2021/06/04 11:25:50;;;;;;;12.82;11.73;;;45.70;22.50;;;;;;5113824;28;20653;-72
2021/06/04 11:28:26;;;;;;;14.30;12.88;;;45.80;23.40;;;;;;5113979;28;20228;-72
2021/06/04 11:30:57;;;;;;;17.88;16.42;;;45.70;23.20;;;;;;5114085;28;20265;-72
2021/06/04 11:33:26;;;;;;;13.30;12.13;;;45.10;23.50;;;;;;5114069;28;20208;-72
2021/06/04 11:35:58;;;;;;;13.52;12.43;;;44.60;24.10;;;;;;5113981;28;20211;-72
2021/06/04 11:38:32;;;;;;;13.95;12.65;;;44.60;24.50;;;;;;5113940;28;20232;-72
2021/06/04 11:41:08;;;;;;;13.25;12.02;;;45.00;24.70;;;;;;5114061;28;20188;-72
2021/06/04 11:43:38;;;;;;;13.43;12.27;;;45.50;24.10;;;;;;5118188;28;20180;-72
2021/06/04 11:46:22;;;;;;;19.02;17.52;;;46.00;23.90;;;;;;5118086;28;20208;-72
2021/06/04 11:49:05;;;;;;;15.30;14.10;;;46.40;22.40;;;;;;5117991;28;20235;-72
2021/06/04 11:51:48;;;;;;;16.20;14.93;;;46.30;22.30;;;;;;5118107;28;20195;-72
2021/06/04 11:54:34;;;;;;;14.63;13.48;;;46.00;22.70;;;;;;5117932;28;20189;-72
2021/06/04 11:57:05;;;;;;;12.52;11.48;;;45.30;23.20;;;;;;5117777;28;20224;-72
2021/06/04 12:00:05;;;;;;;12.73;11.77;;;44.50;23.90;;;;;;5117516;28;20235;-72
2021/06/04 12:02:37;;;;;;;18.05;16.63;;;44.00;24.70;;;;;;5035031;28;20199;-72
2021/06/04 12:05:10;;;;;;;14.77;13.40;;;43.70;24.60;;;;;;5104099;28;20200;-72
2021/06/04 12:07:40;;;;;;;15.23;14.00;;;43.50;24.80;;;;;;5117674;28;20191;-72
2021/06/04 12:10:08;;;;;;;15.25;13.70;;;43.10;25.20;;;;;;5117348;28;20705;-73
2021/06/04 12:13:02;;;;;;;19.35;17.52;;;42.70;26.10;;;;;;5117578;28;20224;-73
2021/06/04 12:15:38;;;;;;;16.90;15.45;;;42.00;27.00;;;;;;5117630;28;20189;-73
2021/06/04 12:18:31;;;;;;;18.45;16.95;;;41.30;27.70;;;;;;5117134;28;20725;-72
2021/06/04 12:20:58;;;;;;;19.27;17.40;;;40.80;28.40;;;;;;5117531;28;20181;-74
2021/06/04 12:23:49;;;;;;;18.48;16.98;;;40.70;28.90;;;;;;5117445;28;20192;-74
2021/06/04 12:26:38;;;;;;;19.98;18.35;;;40.90;28.80;;;;;;5117420;28;20188;-74
2021/06/04 12:29:40;;;;;;;19.80;18.27;;;41.10;27.60;;;;;;5117175;28;20278;-74
2021/06/04 12:32:10;;;;;;;18.58;17.08;;;41.00;27.90;;;;;;5117254;28;20208;-75
2021/06/04 12:34:58;;;;;;;18.48;17.00;;;40.60;28.40;;;;;;5117202;28;20200;-75
2021/06/04 12:37:32;;;;;;;19.98;18.52;;;40.00;29.40;;;;;;5116867;28;20657;-74
2021/06/04 12:40:34;;;;;;;21.85;20.25;;;39.40;29.70;;;;;;5116848;28;20199;-74
2021/06/04 12:43:20;;;;;;;25.43;23.43;;;38.70;30.70;;;;;;5117132;28;20184;-74
2021/06/04 12:45:57;;;;;;;26.40;24.23;;;37.90;31.10;;;;;;5116992;28;20238;-74
2021/06/04 12:48:26;;;;;;;30.90;28.40;;;37.30;32.20;;;;;;5117243;28;20276;-74
2021/06/04 12:51:10;;;;;;;27.90;25.60;;;36.70;33.40;;;;;;5116675;28;20197;-74